Time;durP1;ratioP1;P1;durP2;ratioP2;P2;SDS_P1;SDS_P2;PMS_P1;PMS_P2;Temp;Humidity;BMP_temperature;BMP_pressure;BME280_temperature;BME280_humidity;BME280_pressure;Samples;Min_cycle;Max_cycle;Signal;HPM_P1;HPM_P2
2022/05/16 11:29:17;;;;;;;14.30;5.55;;;19.30;99.10;;;;;;5089902;27;20423;-53
2022/05/16 11:31:35;;;;;;;10.75;4.88;;;19.30;99.70;;;;;;5080414;28;20480;-54
2022/05/16 11:34:02;;;;;;;14.50;5.45;;;19.40;98.90;;;;;;5070500;28;20344;-51
2022/05/16 11:36:31;;;;;;;12.23;6.60;;;19.50;98.20;;;;;;5073945;28;20036;-48
2022/05/16 11:38:57;;;;;;;11.68;5.32;;;19.70;98.30;;;;;;5069931;28;20040;-50
2022/05/16 11:41:24;;;;;;;14.00;5.18;;;19.90;97.60;;;;;;5070083;28;20045;-52
2022/05/16 11:43:51;;;;;;;23.77;11.85;;;20.00;98.10;;;;;;5071471;28;20048;-51
2022/05/16 11:46:18;;;;;;;14.55;6.80;;;20.20;97.90;;;;;;5070300;28;20102;-51
2022/05/16 11:48:44;;;;;;;12.70;5.38;;;20.20;97.00;;;;;;5069665;28;20033;-53
2022/05/16 11:51:31;;;;;;;9.98;4.20;;;20.30;97.30;;;;;;5069715;28;20060;-54
2022/05/16 11:53:58;;;;;;;11.68;4.25;;;20.30;97.20;;;;;;5070033;28;20075;-54
2022/05/16 12:01:55;;;;;;;18.20;4.93;;;20.20;96.30;;;;;;5069699;28;19920;-52
2022/05/16 12:04:22;;;;;;;10.57;3.63;;;20.40;96.70;;;;;;5069360;28;20044;-54
2022/05/16 12:06:49;;;;;;;11.75;3.55;;;20.40;96.30;;;;;;5069180;28;20167;-53
2022/05/16 12:09:16;;;;;;;13.25;3.60;;;20.40;96.00;;;;;;5069343;28;20098;-50
2022/05/16 12:11:43;;;;;;;13.18;3.78;;;20.40;94.50;;;;;;5068898;28;20484;-53
2022/05/16 12:14:09;;;;;;;11.68;3.13;;;20.40;94.60;;;;;;5069296;28;20041;-52
2022/05/16 12:16:42;;;;;;;11.80;3.15;;;20.40;94.70;;;;;;5069040;28;20037;-53
2022/05/16 12:19:09;;;;;;;11.35;3.42;;;20.60;95.00;;;;;;5069187;28;20064;-52
2022/05/16 12:21:36;;;;;;;8.00;2.50;;;20.80;94.40;;;;;;5068582;28;20041;-53
2022/05/16 12:24:03;;;;;;;11.82;2.63;;;20.90;94.50;;;;;;5069173;28;20511;-51
2022/05/16 12:26:29;;;;;;;8.50;2.78;;;21.00;94.00;;;;;;5068755;28;20148;-52
2022/05/16 12:28:56;;;;;;;10.25;2.60;;;21.10;93.70;;;;;;5073649;28;20128;-56
2022/05/16 12:31:25;;;;;;;11.02;3.00;;;21.10;93.40;;;;;;5066833;28;20525;-52
2022/05/16 12:33:53;;;;;;;9.82;2.97;;;21.10;93.10;;;;;;5068600;28;20033;-54
2022/05/16 12:36:20;;;;;;;9.60;2.90;;;21.10;93.00;;;;;;5068716;28;20037;-52
2022/05/16 12:38:47;;;;;;;11.45;3.03;;;21.10;93.40;;;;;;5063381;28;20048;-54
2022/05/16 12:41:14;;;;;;;14.48;3.08;;;21.10;93.40;;;;;;5055466;28;20049;-49
2022/05/16 12:43:40;;;;;;;11.55;3.28;;;21.10;92.80;;;;;;5055121;28;20484;-52
2022/05/16 12:46:07;;;;;;;14.88;3.58;;;21.10;93.00;;;;;;5055304;28;20049;-51
2022/05/16 12:48:34;;;;;;;10.85;3.00;;;21.10;93.30;;;;;;5055179;28;20087;-49
2022/05/16 12:51:01;;;;;;;9.70;2.75;;;21.10;93.20;;;;;;5055333;28;20107;-56
2022/05/16 12:53:28;;;;;;;11.18;2.90;;;21.10;92.70;;;;;;5055368;28;20444;-53
2022/05/16 12:55:54;;;;;;;10.25;3.00;;;21.10;92.80;;;;;;5055456;28;20049;-55
2022/05/16 12:58:21;;;;;;;8.65;2.70;;;21.10;92.70;;;;;;5054957;28;20045;-53
2022/05/16 13:00:48;;;;;;;11.15;2.92;;;21.20;93.00;;;;;;5061657;28;20044;-55
2022/05/16 13:03:15;;;;;;;10.43;3.03;;;21.30;92.90;;;;;;5055014;28;20510;-55
2022/05/16 13:05:42;;;;;;;11.35;2.85;;;21.40;92.50;;;;;;5055014;28;20488;-55
2022/05/16 13:08:29;;;;;;;10.82;2.70;;;21.60;92.60;;;;;;5054857;28;20045;-53
2022/05/16 13:10:56;;;;;;;11.80;3.00;;;21.70;92.60;;;;;;5054652;28;20072;-55
2022/05/16 13:13:23;;;;;;;8.80;2.72;;;21.80;92.20;;;;;;5054560;28;20050;-54
2022/05/16 13:15:50;;;;;;;7.70;2.58;;;21.90;92.00;;;;;;5054442;28;20069;-48
2022/05/16 13:18:17;;;;;;;10.30;2.78;;;21.90;91.40;;;;;;5054411;28;20040;-49
2022/05/16 13:20:44;;;;;;;9.32;2.40;;;21.90;91.60;;;;;;5054621;28;20446;-51
2022/05/16 13:23:10;;;;;;;11.57;2.30;;;21.90;91.10;;;;;;5054531;28;20403;-54
2022/05/16 13:29:21;;;;;;;10.40;2.55;;;22.00;91.30;;;;;;5054360;28;20044;-52
2022/05/16 13:31:09;;;;;;;9.70;2.42;;;21.90;91.40;;;;;;5054460;28;20049;-50
2022/05/16 13:33:36;;;;;;;8.50;2.60;;;21.80;91.40;;;;;;5054241;28;20407;-52
2022/05/16 13:36:03;;;;;;;9.48;2.30;;;21.80;91.40;;;;;;5054307;28;20044;-52
2022/05/16 13:38:29;;;;;;;9.85;2.33;;;21.80;91.80;;;;;;5054030;28;20429;-54
2022/05/16 13:40:56;;;;;;;8.68;2.25;;;21.90;91.60;;;;;;5053408;28;20408;-54
2022/05/16 13:43:23;;;;;;;8.68;2.30;;;22.00;91.30;;;;;;5053263;28;20045;-54
2022/05/16 13:45:50;;;;;;;9.27;2.28;;;22.10;91.30;;;;;;5054399;28;20045;-49
2022/05/16 13:48:17;;;;;;;6.28;1.98;;;22.20;90.80;;;;;;5053527;28;20476;-52
2022/05/16 13:50:43;;;;;;;8.15;2.10;;;22.30;91.00;;;;;;5052977;28;20041;-52
2022/05/16 13:53:10;;;;;;;12.95;7.72;;;22.40;90.80;;;;;;5053886;28;20575;-51
2022/05/16 13:55:37;;;;;;;8.07;2.10;;;22.30;90.40;;;;;;5054106;28;20041;-53
2022/05/16 13:58:05;;;;;;;7.90;1.85;;;22.30;90.30;;;;;;5058138;28;20075;-53
2022/05/16 14:00:36;;;;;;;6.90;1.88;;;22.30;90.70;;;;;;5053972;28;20041;-50
2022/05/16 14:03:03;;;;;;;8.75;2.45;;;22.30;91.00;;;;;;5053492;28;20056;-56
2022/05/16 14:05:30;;;;;;;6.55;2.17;;;22.30;90.70;;;;;;5052283;28;20503;-56
2022/05/16 14:08:02;;;;;;;7.53;2.28;;;22.20;90.50;;;;;;5053696;28;20048;-57
2022/05/16 14:10:29;;;;;;;7.43;2.05;;;22.00;90.40;;;;;;5053632;28;20036;-54
2022/05/16 14:12:55;;;;;;;8.05;2.55;;;22.00;91.00;;;;;;5053173;28;20044;-54
2022/05/16 14:15:22;;;;;;;7.88;2.10;;;21.90;91.00;;;;;;5051850;28;20041;-51
2022/05/16 14:17:49;;;;;;;8.48;2.20;;;21.80;91.10;;;;;;5053528;28;20037;-52
2022/05/16 14:20:16;;;;;;;7.55;2.58;;;21.80;91.50;;;;;;5052331;28;20041;-52
2022/05/16 14:22:43;;;;;;;10.15;2.67;;;21.70;91.70;;;;;;5053289;28;20041;-56
2022/05/16 14:25:11;;;;;;;7.28;1.88;;;21.80;92.40;;;;;;5053163;28;20037;-51
2022/05/16 14:27:38;;;;;;;7.60;1.70;;;21.90;92.10;;;;;;5053060;28;20057;-53
2022/05/16 14:30:04;;;;;;;9.48;1.90;;;21.80;91.60;;;;;;5053530;28;20095;-53
2022/05/16 14:32:31;;;;;;;8.57;2.25;;;21.90;91.80;;;;;;5056656;28;20056;-52
2022/05/16 14:34:58;;;;;;;5.43;1.48;;;21.90;91.90;;;;;;5053279;28;20550;-52
2022/05/16 14:37:25;;;;;;;6.55;1.98;;;21.90;91.80;;;;;;5053179;28;20119;-53
2022/05/16 14:39:51;;;;;;;3.67;1.60;;;21.90;91.60;;;;;;5053264;28;20106;-56
2022/05/16 14:42:18;;;;;;;6.57;1.65;;;21.80;91.80;;;;;;5053035;28;20503;-52
2022/05/16 14:44:45;;;;;;;8.02;1.70;;;21.70;92.00;;;;;;5052932;28;20506;-51
2022/05/16 14:47:13;;;;;;;6.50;1.60;;;21.50;91.70;;;;;;5052864;28;20037;-48
2022/05/16 14:49:40;;;;;;;9.32;1.85;;;21.50;93.20;;;;;;5052591;28;20079;-48
2022/05/16 14:52:07;;;;;;;8.10;1.90;;;21.50;93.40;;;;;;5052564;28;20036;-54
2022/05/16 14:54:34;;;;;;;4.50;1.10;;;21.50;93.20;;;;;;5052893;28;20072;-52
2022/05/16 14:57:00;;;;;;;4.40;1.20;;;21.40;92.90;;;;;;5052770;28;20045;-52
2022/05/16 14:59:27;;;;;;;4.38;1.27;;;21.30;93.20;;;;;;5052637;28;20048;-51
2022/05/16 15:04:39;;;;;;;3.33;1.10;;;21.30;93.50;;;;;;5049157;28;20037;-52
2022/05/16 15:07:07;;;;;;;3.78;1.33;;;21.30;93.50;;;;;;5049491;28;20384;-55
2022/05/16 15:09:34;;;;;;;4.55;1.10;;;21.10;93.70;;;;;;5052515;28;20041;-50
2022/05/16 15:12:01;;;;;;;6.43;1.20;;;21.10;93.60;;;;;;5052472;28;20090;-53
2022/05/16 15:14:28;;;;;;;2.60;1.10;;;21.10;93.60;;;;;;5052444;28;20045;-49
2022/05/16 15:16:55;;;;;;;4.85;1.23;;;21.10;93.40;;;;;;5052092;28;20055;-51
2022/05/16 15:19:22;;;;;;;4.60;1.30;;;21.20;93.30;;;;;;5052259;28;20200;-52
2022/05/16 15:21:49;;;;;;;4.63;1.67;;;21.20;93.30;;;;;;5052477;28;20392;-54
2022/05/16 15:24:16;;;;;;;5.35;1.65;;;21.30;93.00;;;;;;5052138;28;20033;-51
2022/05/16 15:27:03;;;;;;;3.13;0.95;;;21.20;93.00;;;;;;5052241;28;20135;-51
2022/05/16 15:29:29;;;;;;;4.72;1.40;;;21.10;92.30;;;;;;5053472;28;20072;-52
2022/05/16 15:31:56;;;;;;;4.35;1.30;;;20.90;92.40;;;;;;5052331;28;20048;-52
2022/05/16 15:34:23;;;;;;;5.68;1.60;;;20.80;92.50;;;;;;5046061;28;20083;-54
2022/05/16 15:36:50;;;;;;;7.75;1.60;;;20.80;92.20;;;;;;5045849;28;20041;-53
2022/05/16 15:39:17;;;;;;;9.23;1.63;;;20.70;92.20;;;;;;5044576;28;20453;-54
2022/05/16 15:41:44;;;;;;;6.97;1.52;;;20.60;92.30;;;;;;5051089;28;20086;-52
2022/05/16 15:44:11;;;;;;;6.45;1.50;;;20.80;92.30;;;;;;5052367;28;20095;-54
2022/05/16 15:46:38;;;;;;;6.88;1.83;;;21.00;92.00;;;;;;5052230;28;20045;-57
2022/05/16 15:49:05;;;;;;;5.18;1.45;;;21.20;91.60;;;;;;5052074;28;20049;-54
2022/05/16 15:51:34;;;;;;;5.65;1.90;;;21.50;91.60;;;;;;5051958;28;20055;-56
2022/05/16 15:54:01;;;;;;;7.45;1.73;;;21.70;91.40;;;;;;5046111;28;20091;-56
2022/05/16 15:56:28;;;;;;;6.32;1.80;;;21.50;90.60;;;;;;5045919;28;20037;-50
2022/05/16 15:58:56;;;;;;;6.50;1.92;;;21.30;90.50;;;;;;5049774;28;20041;-53
2022/05/16 16:01:23;;;;;;;7.35;2.10;;;21.30;90.80;;;;;;5045689;28;20067;-53
2022/05/16 16:09:21;;;;;;;9.00;1.80;;;22.50;88.90;;;;;;5052546;28;20033;-50
2022/05/16 16:11:47;;;;;;;8.02;2.10;;;23.10;87.70;;;;;;5052132;28;20033;-49
2022/05/16 16:14:14;;;;;;;7.60;1.90;;;23.50;85.20;;;;;;5053353;28;20045;-54
2022/05/16 16:16:41;;;;;;;6.70;1.95;;;23.60;83.90;;;;;;5054455;28;20037;-51
2022/05/16 16:19:10;;;;;;;6.75;1.73;;;23.80;84.00;;;;;;5053667;28;20040;-55
2022/05/16 16:21:39;;;;;;;7.80;2.08;;;24.10;83.00;;;;;;5055842;28;20400;-53
2022/05/16 16:24:07;;;;;;;4.85;1.88;;;24.40;83.10;;;;;;5055735;28;20090;-57
2022/05/16 16:26:34;;;;;;;7.88;2.10;;;24.40;81.40;;;;;;5055692;28;20041;-52
2022/05/16 16:29:01;;;;;;;8.18;2.33;;;23.70;81.50;;;;;;5057028;28;20496;-51
2022/05/16 16:31:28;;;;;;;7.68;1.90;;;23.10;82.20;;;;;;5055711;28;20492;-53
2022/05/16 16:33:55;;;;;;;7.90;1.52;;;22.60;82.90;;;;;;5055721;28;20072;-51
2022/05/16 16:36:21;;;;;;;8.75;1.95;;;22.60;84.80;;;;;;5055639;28;20408;-49
2022/05/16 16:38:48;;;;;;;10.10;2.10;;;23.00;84.70;;;;;;5055793;28;20083;-50
2022/05/16 16:41:15;;;;;;;10.23;2.10;;;23.00;84.00;;;;;;5055710;28;20065;-49
2022/05/16 16:43:41;;;;;;;6.35;1.90;;;23.10;83.50;;;;;;5055631;28;20124;-51
2022/05/16 16:46:09;;;;;;;8.85;2.20;;;23.10;84.20;;;;;;5055788;28;20103;-54
2022/05/16 16:48:36;;;;;;;9.75;2.25;;;23.00;84.50;;;;;;5055438;28;20045;-53
2022/05/16 16:51:03;;;;;;;8.35;2.13;;;22.70;85.00;;;;;;5055391;28;20136;-55
2022/05/16 16:59:01;;;;;;;9.10;2.17;;;22.50;85.60;;;;;;5056521;28;20041;-50
2022/05/16 17:01:28;;;;;;;8.77;2.38;;;22.70;85.40;;;;;;5051507;28;20099;-50
2022/05/16 17:03:55;;;;;;;7.13;2.15;;;22.80;84.20;;;;;;5055165;28;20116;-53
2022/05/16 17:06:23;;;;;;;6.55;1.80;;;23.10;84.20;;;;;;5054724;28;20071;-55
2022/05/16 17:08:50;;;;;;;7.93;2.33;;;23.10;82.40;;;;;;5055078;28;20041;-51
2022/05/16 17:11:18;;;;;;;6.18;1.95;;;22.90;82.50;;;;;;5055019;28;20049;-51
2022/05/16 17:13:44;;;;;;;8.10;2.28;;;22.80;82.30;;;;;;5054661;28;20041;-52
2022/05/16 17:16:11;;;;;;;8.90;2.35;;;22.90;82.20;;;;;;5054748;28;20044;-54
2022/05/16 17:18:38;;;;;;;7.70;1.88;;;23.00;82.50;;;;;;5053596;28;20087;-54
2022/05/16 17:21:05;;;;;;;7.93;2.17;;;23.20;82.10;;;;;;5054586;28;20086;-51
2022/05/16 17:23:37;;;;;;;7.50;1.80;;;23.20;81.10;;;;;;5054800;28;20060;-54
2022/05/16 17:26:04;;;;;;;9.60;2.10;;;22.70;81.60;;;;;;5054469;28;20449;-53
2022/05/16 17:28:31;;;;;;;12.68;2.67;;;22.40;82.50;;;;;;5059289;28;20057;-53
2022/05/16 17:31:00;;;;;;;7.82;2.13;;;21.90;83.80;;;;;;5054860;28;20049;-54
2022/05/16 17:33:28;;;;;;;9.27;2.40;;;21.60;84.80;;;;;;5053028;28;20550;-50
2022/05/16 17:36:15;;;;;;;9.70;2.33;;;21.40;86.70;;;;;;5051349;28;20033;-55
2022/05/16 17:38:45;;;;;;;10.00;2.67;;;21.10;86.60;;;;;;5054431;28;20051;-53
2022/05/16 17:41:12;;;;;;;9.73;2.00;;;20.80;87.20;;;;;;5053587;28;20401;-52
2022/05/16 17:43:38;;;;;;;10.30;2.08;;;20.70;87.70;;;;;;5054199;28;20932;-55
2022/05/16 17:46:05;;;;;;;10.00;2.83;;;20.60;88.00;;;;;;5053214;28;20095;-54
2022/05/16 17:48:32;;;;;;;8.48;2.47;;;20.50;88.20;;;;;;5054140;28;20127;-49
2022/05/16 17:50:59;;;;;;;7.20;1.98;;;20.40;88.40;;;;;;5054241;28;20044;-53
2022/05/16 17:53:25;;;;;;;10.07;2.53;;;20.50;88.70;;;;;;5054028;28;20045;-51
2022/05/16 17:55:52;;;;;;;8.60;2.35;;;20.50;89.10;;;;;;5053421;28;20037;-47
2022/05/16 17:58:19;;;;;;;11.10;2.50;;;20.60;89.20;;;;;;5053807;28;20041;-52
2022/05/16 18:00:46;;;;;;;11.32;2.70;;;20.70;89.30;;;;;;5053279;28;20473;-54
2022/05/16 18:03:12;;;;;;;10.77;2.10;;;20.80;88.60;;;;;;5053908;28;20067;-52
2022/05/16 18:05:41;;;;;;;12.32;2.28;;;20.70;88.50;;;;;;5053905;28;20498;-54
2022/05/16 18:08:08;;;;;;;9.48;2.50;;;20.70;88.70;;;;;;5055068;28;20040;-48
2022/05/16 18:13:22;;;;;;;11.27;2.10;;;20.50;89.20;;;;;;5048509;28;20049;-52
2022/05/16 18:15:49;;;;;;;14.75;2.42;;;20.40;89.50;;;;;;5053474;28;20071;-49
2022/05/16 18:18:17;;;;;;;10.23;2.13;;;20.40;89.60;;;;;;5053561;28;20053;-52
2022/05/16 18:20:43;;;;;;;10.90;2.60;;;20.30;89.60;;;;;;5053689;28;20037;-53
2022/05/16 18:23:10;;;;;;;8.13;2.30;;;20.30;90.00;;;;;;5053465;28;20056;-51
2022/05/16 18:25:37;;;;;;;13.07;2.75;;;20.30;90.10;;;;;;5053277;28;20392;-53
2022/05/16 18:28:04;;;;;;;10.07;2.45;;;20.30;89.90;;;;;;5053030;28;20512;-51
2022/05/16 18:30:31;;;;;;;8.98;2.25;;;20.20;90.00;;;;;;5054118;28;20385;-52
2022/05/16 18:32:57;;;;;;;9.90;2.33;;;20.10;90.20;;;;;;5053666;28;20111;-53
2022/05/16 18:35:30;;;;;;;11.35;2.67;;;20.00;90.20;;;;;;5053958;28;20095;-52
2022/05/16 18:37:58;;;;;;;9.63;2.13;;;19.90;90.40;;;;;;5053221;28;20041;-53
2022/05/16 18:40:25;;;;;;;10.75;2.50;;;19.70;90.50;;;;;;5035840;28;20043;-58
2022/05/16 18:51:19;;;;;;;11.25;2.33;;;19.30;91.00;;;;;;5053637;28;20045;-52
2022/05/16 18:53:46;;;;;;;10.05;2.40;;;19.30;91.40;;;;;;5053678;28;20045;-50
2022/05/16 18:56:13;;;;;;;12.10;2.50;;;19.20;91.40;;;;;;5053427;28;20542;-51
2022/05/16 18:58:40;;;;;;;10.55;2.75;;;19.10;91.50;;;;;;5053652;28;20037;-50
2022/05/16 19:01:07;;;;;;;10.85;3.33;;;19.10;91.60;;;;;;5053426;28;20039;-55
2022/05/16 19:03:36;;;;;;;12.70;2.53;;;19.00;91.90;;;;;;5053244;28;20037;-50
2022/05/16 19:06:03;;;;;;;8.63;2.35;;;18.90;91.90;;;;;;5056212;28;20124;-50
2022/05/16 19:08:30;;;;;;;11.50;2.75;;;18.80;92.10;;;;;;5053514;28;20056;-51
2022/05/16 19:10:57;;;;;;;10.35;2.53;;;18.80;92.20;;;;;;5052941;28;20049;-50
2022/05/16 19:13:24;;;;;;;11.18;2.38;;;18.70;92.40;;;;;;5055321;28;20047;-51
2022/05/16 19:15:52;;;;;;;8.48;2.20;;;18.60;92.50;;;;;;5053349;28;20122;-52
2022/05/16 19:18:19;;;;;;;9.15;2.20;;;18.50;92.50;;;;;;5052937;28;20045;-51
2022/05/16 19:20:46;;;;;;;12.57;2.33;;;18.50;92.70;;;;;;5053263;28;20041;-53
2022/05/16 19:23:13;;;;;;;13.70;2.70;;;18.40;92.90;;;;;;5051851;28;20045;-54
2022/05/16 19:25:40;;;;;;;12.18;2.42;;;18.30;93.00;;;;;;5052258;28;20171;-54
2022/05/16 19:33:44;;;;;;;14.63;2.92;;;18.10;93.70;;;;;;5053050;28;19928;-53
2022/05/16 19:36:13;;;;;;;13.48;2.80;;;18.00;93.60;;;;;;5053028;28;20106;-53
2022/05/16 19:38:40;;;;;;;12.85;2.78;;;18.00;93.80;;;;;;5053013;28;20041;-50
2022/05/16 19:41:07;;;;;;;12.68;2.78;;;17.90;93.90;;;;;;5054214;28;20064;-53
2022/05/16 19:43:36;;;;;;;13.93;2.67;;;17.80;94.10;;;;;;5051687;28;20071;-53
2022/05/16 19:46:05;;;;;;;9.55;2.53;;;17.80;94.30;;;;;;5052985;28;20452;-48
2022/05/16 19:48:31;;;;;;;13.55;2.78;;;17.70;94.20;;;;;;5052858;28;20075;-52
2022/05/16 19:50:59;;;;;;;12.50;3.33;;;17.70;94.70;;;;;;5056914;28;20045;-47
2022/05/16 19:53:26;;;;;;;14.35;3.40;;;17.60;94.50;;;;;;5056888;28;20044;-50
2022/05/16 19:55:53;;;;;;;10.02;2.90;;;17.50;94.90;;;;;;5056813;28;20052;-53
2022/05/16 19:58:20;;;;;;;18.27;4.05;;;17.50;94.90;;;;;;5056785;28;20065;-52
2022/05/16 20:00:48;;;;;;;17.20;3.53;;;17.50;94.80;;;;;;5056841;28;20041;-55
2022/05/16 20:03:16;;;;;;;15.63;3.78;;;17.50;95.00;;;;;;5056609;28;20435;-52
2022/05/16 20:05:43;;;;;;;17.77;4.28;;;17.40;95.10;;;;;;5055361;28;20064;-51
2022/05/16 20:08:10;;;;;;;10.80;3.20;;;17.40;95.30;;;;;;5056720;28;20041;-51
2022/05/16 20:10:37;;;;;;;16.77;3.63;;;17.30;95.40;;;;;;5056538;28;20045;-46
2022/05/16 20:13:05;;;;;;;15.57;4.00;;;17.30;95.60;;;;;;5055199;28;20040;-50
2022/05/16 20:15:32;;;;;;;11.93;3.30;;;17.30;95.70;;;;;;5056680;28;20127;-53
2022/05/16 20:17:59;;;;;;;14.30;3.42;;;17.20;95.90;;;;;;5061858;28;20446;-52
2022/05/16 20:20:26;;;;;;;15.57;3.78;;;17.10;96.10;;;;;;5057441;28;20041;-54
2022/05/16 20:25:39;;;;;;;;;;;17.10;96.40;;;;;;5058433;28;20069;-56
2022/05/16 20:28:17;;;;;;;12.65;3.10;;;17.10;96.70;;;;;;5058325;28;19982;-49
2022/05/16 20:30:44;;;;;;;15.60;3.15;;;17.00;96.50;;;;;;5054406;28;20045;-52
2022/05/16 20:33:11;;;;;;;15.75;3.75;;;17.00;96.70;;;;;;5056249;28;20551;-56
2022/05/16 20:35:38;;;;;;;13.10;3.20;;;16.90;96.70;;;;;;5056806;28;20037;-54
2022/05/16 20:38:05;;;;;;;12.45;3.38;;;16.90;96.90;;;;;;5058425;28;20060;-53
2022/05/16 20:40:33;;;;;;;13.45;3.40;;;16.90;97.00;;;;;;5057690;28;20049;-50
2022/05/16 20:43:03;;;;;;;16.60;3.72;;;16.90;97.10;;;;;;5054246;28;20515;-50
2022/05/16 20:45:30;;;;;;;17.20;3.97;;;16.90;97.10;;;;;;5055264;28;20041;-55
2022/05/16 20:47:57;;;;;;;25.92;3.83;;;16.90;97.20;;;;;;5055431;28;20037;-51
2022/05/16 20:50:24;;;;;;;17.70;3.80;;;16.80;97.30;;;;;;5055545;28;20169;-50
2022/05/16 20:52:51;;;;;;;20.23;3.92;;;16.80;97.40;;;;;;5056071;28;20511;-51
2022/05/16 20:55:18;;;;;;;16.67;3.25;;;16.80;97.40;;;;;;5055506;28;20041;-51
2022/05/16 20:57:45;;;;;;;17.85;3.83;;;16.70;97.50;;;;;;5037545;28;20503;-50
2022/05/16 21:00:12;;;;;;;16.10;3.47;;;16.70;97.60;;;;;;5046156;28;20404;-50
2022/05/16 21:02:40;;;;;;;17.08;3.08;;;16.60;97.80;;;;;;5059181;28;20037;-52
2022/05/16 21:05:07;;;;;;;13.00;3.28;;;16.60;97.90;;;;;;5058485;28;20063;-52
2022/05/16 21:07:37;;;;;;;14.75;3.63;;;16.50;98.00;;;;;;5052288;28;20108;-54
2022/05/16 21:10:04;;;;;;;14.10;3.55;;;16.50;98.10;;;;;;5053717;28;20106;-54
2022/05/16 21:12:31;;;;;;;15.77;3.35;;;16.50;98.20;;;;;;5054480;28;20053;-55
2022/05/16 21:14:58;;;;;;;16.10;3.33;;;16.40;98.30;;;;;;5055385;28;20095;-56
2022/05/16 21:17:25;;;;;;;22.00;4.32;;;16.40;98.50;;;;;;5057137;28;20063;-51
2022/05/16 21:19:55;;;;;;;18.92;3.83;;;16.40;98.60;;;;;;5056230;28;20047;-46
2022/05/16 21:22:22;;;;;;;16.60;3.58;;;16.30;98.80;;;;;;5053699;28;20049;-50
2022/05/16 21:24:48;;;;;;;19.48;3.75;;;16.30;98.90;;;;;;5055010;28;20045;-49
2022/05/16 21:27:15;;;;;;;18.52;3.58;;;16.20;99.00;;;;;;5061396;28;20053;-49
2022/05/16 21:29:42;;;;;;;17.38;3.38;;;16.10;99.30;;;;;;5055030;28;20045;-51
2022/05/16 21:32:08;;;;;;;16.20;3.90;;;16.10;99.50;;;;;;5054579;28;20041;-50
2022/05/16 21:34:35;;;;;;;13.52;3.80;;;16.10;99.60;;;;;;5057712;28;20382;-51
2022/05/16 21:37:02;;;;;;;16.15;3.45;;;16.00;99.60;;;;;;5057748;28;20040;-49
2022/05/16 21:39:29;;;;;;;14.23;3.55;;;16.00;99.60;;;;;;5055778;28;20037;-51
2022/05/16 21:41:55;;;;;;;16.85;3.80;;;15.90;99.70;;;;;;5054562;28;20037;-54
2022/05/16 21:47:08;;;;;;;17.50;4.18;;;15.90;99.90;;;;;;5054504;28;20048;-47
2022/05/16 21:49:34;;;;;;;17.33;3.80;;;15.90;99.90;;;;;;5053744;28;20515;-49
2022/05/16 21:52:01;;;;;;;18.17;3.75;;;15.90;99.90;;;;;;5054242;28;20056;-50
2022/05/16 21:54:28;;;;;;;19.38;4.40;;;15.80;99.90;;;;;;5054172;28;20037;-55
2022/05/16 21:56:54;;;;;;;21.75;4.15;;;15.80;99.90;;;;;;5054600;28;20037;-53
2022/05/16 21:59:22;;;;;;;17.63;3.95;;;15.70;99.90;;;;;;5053137;28;20033;-50
2022/05/16 22:01:49;;;;;;;18.27;3.95;;;15.70;99.90;;;;;;5053880;28;20110;-52
2022/05/16 22:04:15;;;;;;;15.50;4.68;;;15.70;99.90;;;;;;5053817;28;20045;-52
2022/05/16 22:06:44;;;;;;;19.77;3.78;;;15.60;99.90;;;;;;5053064;28;20053;-54
2022/05/16 22:09:11;;;;;;;20.33;4.30;;;15.60;99.90;;;;;;5055943;28;20033;-55
2022/05/16 22:11:37;;;;;;;20.48;3.90;;;15.60;99.90;;;;;;5059996;28;20036;-53
2022/05/16 22:14:04;;;;;;;19.08;4.10;;;15.50;99.90;;;;;;5060224;28;20041;-53
2022/05/16 22:16:31;;;;;;;19.13;4.40;;;15.40;99.90;;;;;;5053802;28;20485;-55
2022/05/16 22:19:01;;;;;;;14.57;3.47;;;15.40;99.90;;;;;;5053604;28;20041;-48
2022/05/16 22:21:28;;;;;;;18.13;3.95;;;15.40;99.90;;;;;;5053453;28;20404;-49
2022/05/16 22:23:55;;;;;;;19.30;3.97;;;15.40;99.90;;;;;;5053625;28;20045;-50
2022/05/16 22:26:22;;;;;;;13.73;3.88;;;15.30;99.90;;;;;;5056863;28;20439;-48
2022/05/16 22:28:49;;;;;;;16.08;4.90;;;15.30;99.90;;;;;;5056446;28;20450;-47
2022/05/16 22:31:16;;;;;;;17.48;4.65;;;15.30;99.90;;;;;;5052824;28;20041;-51
2022/05/16 22:33:43;;;;;;;21.13;4.47;;;15.20;99.90;;;;;;5052745;28;20447;-51
2022/05/16 22:36:09;;;;;;;17.08;3.88;;;15.10;99.90;;;;;;5053387;28;20045;-49
2022/05/16 22:38:36;;;;;;;15.68;3.97;;;15.10;99.90;;;;;;5036456;28;20037;-50
2022/05/16 22:41:04;;;;;;;17.75;3.90;;;15.10;99.90;;;;;;5053205;28;20436;-51
2022/05/16 22:43:30;;;;;;;18.88;3.47;;;15.00;99.90;;;;;;5053185;28;20485;-49
